createdAt,value
2018-08-28T04:02:38.284Z,68.00
2018-08-28T04:05:06.412Z,68.20
2018-08-28T04:07:34.521Z,68.20
2018-08-28T04:10:02.661Z,68.30
2018-08-28T04:12:30.776Z,68.60
2018-08-28T04:14:58.885Z,68.60
2018-08-28T04:17:27.019Z,69.40
2018-08-28T04:19:55.123Z,68.60
2018-08-28T04:22:23.764Z,68.80
2018-08-28T04:24:51.851Z,68.80
2018-08-28T04:27:19.988Z,69.00
2018-08-28T04:29:48.108Z,68.90
2018-08-28T04:32:16.214Z,69.00
2018-08-28T04:34:44.341Z,69.00
2018-08-28T04:37:12.461Z,68.80
2018-08-28T04:39:40.604Z,69.80
2018-08-28T04:42:08.725Z,68.60
2018-08-28T04:44:36.851Z,68.70
2018-08-28T04:47:05.000Z,68.60
2018-08-28T04:49:33.140Z,69.00
2018-08-28T04:52:01.264Z,68.60
2018-08-28T04:54:29.392Z,68.40
2018-08-28T04:56:57.709Z,67.50
2018-08-28T04:59:25.835Z,67.40
2018-08-28T05:01:53.953Z,67.70
2018-08-28T05:04:22.060Z,67.30
2018-08-28T05:06:50.204Z,67.20
2018-08-28T05:09:18.326Z,67.00
2018-08-28T05:11:46.549Z,66.60
2018-08-28T05:14:14.788Z,66.20
2018-08-28T05:16:42.949Z,66.30
2018-08-28T05:19:11.105Z,67.20
2018-08-28T05:21:39.212Z,66.10
2018-08-28T05:24:07.344Z,65.90
2018-08-28T05:26:35.463Z,65.10
2018-08-28T05:29:03.592Z,65.10
2018-08-28T05:31:31.730Z,65.20
2018-08-28T05:33:59.901Z,65.50
2018-08-28T05:36:28.066Z,65.60
2018-08-28T05:38:56.166Z,65.80
2018-08-28T05:41:24.589Z,65.60
2018-08-28T05:43:52.722Z,66.10
2018-08-28T05:46:20.853Z,66.20
2018-08-28T05:48:48.959Z,66.30
2018-08-28T05:51:17.083Z,66.50
2018-08-28T05:53:45.198Z,66.80
2018-08-28T05:56:13.449Z,67.20
2018-08-28T05:58:41.481Z,68.60
2018-08-28T06:01:09.611Z,69.30
2018-08-28T06:03:37.756Z,68.20
2018-08-28T06:06:05.893Z,67.80
2018-08-28T06:08:34.029Z,67.70
2018-08-28T06:11:02.357Z,68.10
2018-08-28T06:13:30.521Z,67.80
2018-08-28T06:15:58.760Z,67.50
2018-08-28T06:18:26.873Z,67.50
2018-08-28T06:20:55.077Z,67.70
2018-08-28T06:23:23.247Z,68.40
2018-08-28T06:25:51.405Z,67.60
2018-08-28T06:28:19.540Z,68.80
2018-08-28T06:30:47.705Z,69.80
2018-08-28T06:33:15.830Z,69.50
2018-08-28T06:35:43.948Z,68.90
2018-08-28T06:38:12.068Z,68.60
2018-08-28T06:40:40.228Z,67.90
2018-08-28T06:43:08.346Z,66.90
2018-08-28T06:45:36.456Z,66.60
2018-08-28T06:48:04.578Z,64.10
2018-08-28T06:50:32.700Z,63.70
2018-08-28T06:53:00.880Z,62.50
2018-08-28T06:55:29.065Z,60.80
2018-08-28T06:57:57.267Z,61.70
2018-08-28T07:00:25.399Z,62.00
2018-08-28T07:02:53.534Z,62.80
2018-08-28T07:05:21.653Z,63.20
2018-08-28T07:07:49.823Z,62.30
2018-08-28T07:10:18.005Z,62.30
2018-08-28T07:12:46.075Z,61.60
2018-08-28T07:15:14.201Z,61.90
2018-08-28T07:17:42.347Z,62.00
2018-08-28T07:20:10.480Z,62.30
2018-08-28T07:22:38.583Z,62.90
2018-08-28T07:25:06.781Z,63.10
2018-08-28T07:27:34.937Z,63.40
2018-08-28T07:30:03.148Z,63.60
2018-08-28T07:32:31.322Z,63.20
2018-08-28T07:34:59.444Z,62.10
2018-08-28T07:37:27.587Z,62.30
2018-08-28T07:39:55.721Z,62.50
2018-08-28T07:42:23.860Z,61.80
2018-08-28T07:44:51.987Z,61.40
2018-08-28T07:47:20.112Z,61.10
2018-08-28T07:49:48.231Z,61.90
2018-08-28T07:52:16.351Z,61.20
2018-08-28T07:54:44.473Z,60.40
2018-08-28T07:57:12.608Z,60.80
2018-08-28T07:59:40.740Z,59.90
2018-08-28T08:02:08.881Z,58.70
2018-08-28T08:04:37.188Z,58.80
2018-08-28T08:07:05.885Z,58.50
2018-08-28T08:09:34.018Z,58.30
2018-08-28T08:12:02.159Z,58.10
2018-08-28T08:14:30.369Z,58.60
2018-08-28T08:16:58.502Z,59.20
2018-08-28T08:19:26.837Z,59.50
2018-08-28T08:21:54.940Z,59.60
2018-08-28T08:24:23.052Z,59.90
2018-08-28T08:26:51.193Z,59.80
2018-08-28T08:29:19.305Z,59.00
2018-08-28T08:31:47.458Z,59.20
2018-08-28T08:34:15.608Z,58.50
2018-08-28T08:36:43.742Z,58.30
2018-08-28T08:39:11.992Z,57.90
2018-08-28T08:41:40.392Z,57.60
2018-08-28T08:44:08.543Z,57.30
2018-08-28T08:46:36.669Z,57.50
2018-08-28T08:49:04.828Z,57.00
2018-08-28T08:51:32.944Z,56.60
2018-08-28T08:54:01.066Z,56.80
2018-08-28T08:56:29.203Z,57.00
2018-08-28T08:58:57.327Z,56.80
2018-08-28T09:01:25.489Z,57.00
2018-08-28T09:03:53.640Z,57.20
2018-08-28T09:06:21.757Z,57.10
2018-08-28T09:08:49.872Z,56.40
2018-08-28T09:11:17.999Z,56.70
2018-08-28T09:13:46.138Z,57.50
2018-08-28T09:16:14.343Z,57.30
2018-08-28T09:18:42.484Z,56.60
2018-08-28T09:21:10.784Z,56.10
2018-08-28T09:23:38.940Z,56.00
2018-08-28T09:26:07.065Z,55.50
2018-08-28T09:28:35.466Z,56.10
2018-08-28T09:31:03.840Z,55.10
2018-08-28T09:33:31.965Z,55.20
2018-08-28T09:36:00.111Z,55.30
2018-08-28T09:38:28.292Z,54.70
2018-08-28T09:40:56.392Z,54.10
2018-08-28T09:43:24.513Z,53.40
2018-08-28T09:45:52.644Z,53.50
2018-08-28T09:48:20.999Z,53.80
2018-08-28T09:50:49.190Z,53.50
2018-08-28T09:53:17.097Z,53.00
2018-08-28T09:55:45.311Z,53.90
2018-08-28T09:58:13.464Z,53.80
2018-08-28T10:00:47.078Z,53.70
2018-08-28T10:03:15.204Z,53.30
2018-08-28T10:05:43.320Z,53.40
2018-08-28T10:08:11.478Z,53.30
2018-08-28T10:10:39.917Z,52.00
2018-08-28T10:13:08.465Z,51.70
2018-08-28T10:15:36.596Z,51.30
2018-08-28T10:18:04.751Z,50.90
2018-08-28T10:20:32.884Z,50.30
2018-08-28T10:23:01.103Z,50.80
2018-08-28T10:25:29.221Z,50.30
2018-08-28T10:27:57.343Z,49.00
2018-08-28T10:30:25.561Z,48.60
2018-08-28T10:32:53.679Z,49.10
2018-08-28T10:35:21.826Z,48.70
2018-08-28T10:37:49.956Z,49.70
2018-08-28T10:40:18.073Z,49.80
2018-08-28T10:42:46.185Z,49.60
2018-08-28T10:45:14.321Z,48.60
2018-08-28T10:47:42.443Z,49.60
2018-08-28T10:50:10.600Z,49.70
2018-08-28T10:52:38.733Z,49.60
2018-08-28T10:55:06.881Z,49.20
2018-08-28T10:57:34.989Z,48.20
2018-08-28T11:00:03.136Z,47.40
2018-08-28T11:02:31.759Z,46.40
2018-08-28T11:04:59.872Z,46.80
2018-08-28T11:07:28.228Z,47.50
2018-08-28T11:09:56.355Z,48.00
2018-08-28T11:12:24.573Z,47.80
2018-08-28T11:14:52.701Z,47.70
2018-08-28T11:17:20.848Z,47.70
2018-08-28T11:19:49.053Z,47.20
2018-08-28T11:22:17.260Z,47.00
2018-08-28T11:24:45.344Z,47.40
2018-08-28T11:27:13.505Z,47.60
2018-08-28T11:29:41.657Z,47.70
2018-08-28T11:32:09.788Z,47.00
2018-08-28T11:34:37.907Z,47.10
2018-08-28T11:37:06.033Z,46.90
2018-08-28T11:39:34.176Z,45.40
2018-08-28T11:42:02.314Z,44.00
2018-08-28T11:44:30.429Z,44.10
2018-08-28T11:46:58.554Z,43.00
2018-08-28T11:49:26.733Z,44.30
2018-08-28T11:51:54.917Z,43.80
2018-08-28T11:54:23.105Z,44.60
2018-08-28T11:56:51.224Z,44.30
2018-08-28T11:59:19.360Z,44.90
2018-08-28T12:01:47.499Z,45.30
2018-08-28T12:04:15.659Z,44.80
2018-08-28T12:06:43.845Z,45.60
2018-08-28T12:09:12.308Z,45.20
2018-08-28T12:11:40.416Z,45.20
2018-08-28T12:14:08.570Z,44.40
2018-08-28T12:16:36.777Z,45.10
2018-08-28T12:19:05.208Z,44.10
2018-08-28T12:21:33.320Z,43.70
2018-08-28T12:24:01.469Z,43.50
2018-08-28T12:26:29.631Z,43.10
2018-08-28T12:28:57.765Z,41.40
2018-08-28T12:31:25.908Z,42.10
2018-08-28T12:33:54.039Z,42.50
2018-08-28T12:36:22.180Z,41.90
2018-08-28T12:38:50.301Z,42.20
2018-08-28T12:41:18.421Z,42.50
2018-08-28T12:43:47.072Z,42.60
2018-08-28T12:46:15.195Z,41.80
2018-08-28T12:48:43.329Z,41.20
2018-08-28T12:51:11.542Z,41.60
2018-08-28T12:53:39.594Z,42.00
2018-08-28T12:56:07.768Z,40.20
2018-08-28T12:58:35.916Z,40.90
2018-08-28T13:01:04.037Z,39.60
2018-08-28T13:03:32.190Z,38.50
2018-08-28T13:06:00.313Z,38.70
2018-08-28T13:08:28.435Z,39.00
2018-08-28T13:10:56.572Z,38.80
